createdAt,value
2019-04-20T00:02:07.404Z,11.26
2019-04-20T00:04:35.368Z,11.26
2019-04-20T00:07:02.412Z,11.32
2019-04-20T00:09:34.821Z,11.22
2019-04-20T00:12:57.029Z,11.23
2019-04-20T00:15:13.065Z,11.17
2019-04-20T00:17:50.867Z,11.19
2019-04-20T00:20:20.085Z,11.18
2019-04-20T00:23:02.107Z,11.13
2019-04-20T00:26:00.428Z,11.09
2019-04-20T00:28:40.823Z,11.08
2019-04-20T00:31:09.174Z,11.03
2019-04-20T00:33:31.110Z,11.18
2019-04-20T00:35:52.628Z,11.10
2019-04-20T00:38:25.986Z,10.97
2019-04-20T00:40:58.299Z,10.97
2019-04-20T00:43:29.132Z,11.06
2019-04-20T00:46:01.990Z,11.13
2019-04-20T00:48:33.797Z,11.15
2019-04-20T00:51:11.522Z,11.12
2019-04-20T00:53:31.521Z,11.20
2019-04-20T00:55:54.974Z,11.19
2019-04-20T00:58:33.385Z,10.95
2019-04-20T01:01:13.029Z,10.89
2019-04-20T01:03:43.236Z,10.93
2019-04-20T01:06:31.878Z,10.99
2019-04-20T01:09:05.466Z,10.98
2019-04-20T01:14:30.880Z,10.84
2019-04-20T01:16:58.855Z,10.93
2019-04-20T01:19:23.442Z,10.96
2019-04-20T01:21:59.671Z,11.08
2019-04-20T01:24:29.637Z,11.39
2019-04-20T01:26:55.926Z,11.48
2019-04-20T01:29:32.418Z,11.53
2019-04-20T01:32:07.762Z,11.62
2019-04-20T01:34:38.996Z,11.63
2019-04-20T01:37:09.290Z,11.24
2019-04-20T01:39:31.721Z,11.44
2019-04-20T01:41:56.138Z,11.37
2019-04-20T01:44:31.682Z,11.42
2019-04-20T01:46:58.747Z,11.27
2019-04-20T01:50:13.359Z,11.16
2019-04-20T01:52:50.728Z,11.30
2019-04-20T01:55:44.000Z,11.45
2019-04-20T01:58:37.769Z,11.49
2019-04-20T02:03:57.183Z,11.53
2019-04-20T02:06:50.330Z,11.53
2019-04-20T02:09:20.491Z,11.48
2019-04-20T02:11:48.800Z,11.35
2019-04-20T02:14:42.989Z,11.25
2019-04-20T02:18:02.221Z,10.97
2019-04-20T02:20:37.509Z,10.87
2019-04-20T02:22:59.268Z,10.79
2019-04-20T02:25:16.412Z,10.69
2019-04-20T02:27:50.283Z,10.70
2019-04-20T02:31:32.667Z,10.60
2019-04-20T02:34:16.467Z,11.06
2019-04-20T02:37:14.143Z,11.13
2019-04-20T02:40:15.919Z,10.85
2019-04-20T02:42:50.859Z,10.75
2019-04-20T02:45:27.715Z,10.71
2019-04-20T02:47:51.312Z,11.12
2019-04-20T02:55:22.545Z,11.33
2019-04-20T02:57:53.177Z,11.38
2019-04-20T03:00:12.691Z,11.36
2019-04-20T03:02:33.746Z,11.47
2019-04-20T03:05:02.682Z,11.53
2019-04-20T03:07:31.556Z,11.53
2019-04-20T03:10:06.432Z,11.32
2019-04-20T03:12:59.362Z,11.13
2019-04-20T03:15:01.608Z,11.13
2019-04-20T03:17:45.997Z,11.10
2019-04-20T03:20:06.904Z,11.24
2019-04-20T03:25:45.442Z,10.98
2019-04-20T03:31:33.413Z,10.47
2019-04-20T03:34:15.246Z,10.39
2019-04-20T03:36:19.578Z,10.26
2019-04-20T03:38:36.332Z,10.25
2019-04-20T03:40:59.152Z,10.27
2019-04-20T03:43:18.146Z,10.19
2019-04-20T03:45:56.224Z,10.04
2019-04-20T03:48:38.137Z,9.90
2019-04-20T03:54:07.603Z,9.74
2019-04-20T03:56:49.532Z,9.75
2019-04-20T03:59:44.298Z,9.75
2019-04-20T04:02:49.396Z,9.59
2019-04-20T04:07:29.572Z,9.52
2019-04-20T04:10:08.181Z,9.44
2019-04-20T04:12:58.793Z,9.32
2019-04-20T04:15:27.793Z,9.34
2019-04-20T04:18:42.008Z,9.35
2019-04-20T04:21:12.879Z,9.41
2019-04-20T04:23:56.229Z,9.33
2019-04-20T04:26:28.750Z,9.32
2019-04-20T04:28:53.812Z,9.26
2019-04-20T04:31:27.557Z,9.28
2019-04-20T04:34:03.598Z,9.24
2019-04-20T04:36:20.794Z,9.20
2019-04-20T04:39:03.903Z,9.28
2019-04-20T04:41:26.707Z,9.33
2019-04-20T04:44:01.782Z,9.29
2019-04-20T04:46:10.862Z,9.29
2019-04-20T04:48:45.947Z,9.37
2019-04-20T04:51:19.738Z,9.52
2019-04-20T04:53:53.002Z,9.49
2019-04-20T04:56:17.923Z,9.43
2019-04-20T04:58:42.806Z,9.45
2019-04-20T05:01:18.497Z,9.64
2019-04-20T05:04:10.541Z,9.76
2019-04-20T05:08:53.271Z,10.21
2019-04-20T05:11:17.908Z,10.15
2019-04-20T05:13:54.618Z,10.41
2019-04-20T05:16:39.694Z,10.36
2019-04-20T05:19:15.435Z,10.54
2019-04-20T05:24:56.702Z,10.84
2019-04-20T05:27:46.559Z,10.87
2019-04-20T05:29:56.997Z,10.91
2019-04-20T05:32:35.753Z,11.12
2019-04-20T05:35:23.737Z,11.09
2019-04-20T05:37:53.652Z,11.18
2019-04-20T05:40:22.314Z,11.33
2019-04-20T05:43:07.795Z,11.39
2019-04-20T05:45:32.323Z,11.39
2019-04-20T05:48:04.589Z,11.53
2019-04-20T05:50:36.401Z,11.62
2019-04-20T05:53:16.027Z,11.82
2019-04-20T05:55:40.069Z,11.80
2019-04-20T05:58:10.774Z,11.96
2019-04-20T06:00:47.647Z,11.94
2019-04-20T06:03:07.379Z,12.01
2019-04-20T06:05:50.752Z,12.14
2019-04-20T06:11:21.706Z,12.25
2019-04-20T06:13:59.967Z,12.42
2019-04-20T06:19:26.050Z,12.56
2019-04-20T06:22:12.674Z,12.62
2019-04-20T06:25:06.132Z,12.69
2019-04-20T06:27:38.150Z,12.76
2019-04-20T06:29:55.868Z,12.97
2019-04-20T06:33:13.107Z,13.00
2019-04-20T06:35:56.619Z,13.14
2019-04-20T06:38:26.674Z,13.31
2019-04-20T06:40:57.851Z,13.50
2019-04-20T06:43:05.026Z,13.57
2019-04-20T06:45:49.581Z,13.73
2019-04-20T06:48:15.348Z,13.96
2019-04-20T06:53:47.387Z,16.63
2019-04-20T06:56:42.641Z,18.98
2019-04-20T06:59:11.936Z,20.77
2019-04-20T07:01:48.740Z,22.09
2019-04-20T07:09:14.091Z,23.32
2019-04-20T07:11:42.558Z,23.67
2019-04-20T07:13:59.423Z,24.35
2019-04-20T07:16:58.611Z,23.53
2019-04-20T07:22:33.503Z,24.74
2019-04-20T07:25:02.416Z,24.16
2019-04-20T07:31:18.168Z,24.62
2019-04-20T07:33:52.420Z,24.86
2019-04-20T07:36:28.376Z,24.12
2019-04-20T07:38:54.081Z,24.31
2019-04-20T07:41:29.336Z,22.98
2019-04-20T07:44:01.671Z,23.85
2019-04-20T07:46:37.653Z,24.29
2019-04-20T07:48:58.032Z,24.73
2019-04-20T07:51:12.467Z,24.31
2019-04-20T07:53:45.085Z,24.20
2019-04-20T07:56:23.616Z,24.04
2019-04-20T07:58:43.381Z,23.11
2019-04-20T08:01:54.757Z,23.69
2019-04-20T08:06:54.844Z,23.92
2019-04-20T08:09:30.141Z,23.65
2019-04-20T08:12:38.242Z,23.52
2019-04-20T08:15:09.099Z,22.98
2019-04-20T08:17:44.279Z,23.16
2019-04-20T08:19:57.819Z,23.15
2019-04-20T08:22:34.142Z,22.84
2019-04-20T08:24:55.304Z,22.69
2019-04-20T08:30:33.647Z,21.30
2019-04-20T08:33:55.254Z,20.94
2019-04-20T08:36:22.868Z,20.84
2019-04-20T08:42:00.425Z,20.55
2019-04-20T08:48:09.877Z,20.72
2019-04-20T08:50:50.700Z,20.41
2019-04-20T08:53:27.572Z,20.81
2019-04-20T08:55:48.894Z,20.90
2019-04-20T08:58:04.985Z,21.33
2019-04-20T09:00:39.545Z,21.09
2019-04-20T09:03:13.210Z,21.10
2019-04-20T09:05:45.941Z,21.07
2019-04-20T09:08:13.507Z,21.15
2019-04-20T09:10:54.385Z,21.20
2019-04-20T09:13:16.020Z,21.28
2019-04-20T09:15:36.306Z,21.32
2019-04-20T09:18:52.531Z,21.38
2019-04-20T09:21:33.117Z,21.44
2019-04-20T09:24:30.292Z,21.47
2019-04-20T09:26:54.600Z,21.32
2019-04-20T09:29:15.994Z,21.06
2019-04-20T09:34:57.748Z,21.33
2019-04-20T09:37:41.205Z,21.45
2019-04-20T09:40:40.668Z,21.72
2019-04-20T09:48:11.628Z,21.68
2019-04-20T09:50:53.128Z,21.49
2019-04-20T09:53:19.563Z,21.68
2019-04-20T09:55:53.664Z,21.83
2019-04-20T09:58:18.118Z,21.99
2019-04-20T10:01:12.407Z,22.22
2019-04-20T10:03:26.837Z,22.18
2019-04-20T10:05:56.896Z,22.35
2019-04-20T10:08:25.993Z,22.29
2019-04-20T10:10:56.179Z,22.51
2019-04-20T10:13:27.180Z,22.63
2019-04-20T10:15:57.701Z,22.74
2019-04-20T10:18:27.979Z,22.51
2019-04-20T10:20:57.926Z,22.73
2019-04-20T10:23:27.764Z,23.06
2019-04-20T10:25:56.628Z,22.84
2019-04-20T10:28:25.676Z,22.90
2019-04-20T10:31:14.933Z,22.81
2019-04-20T10:33:43.809Z,23.10
2019-04-20T10:36:31.603Z,23.16
2019-04-20T10:39:00.399Z,23.17
2019-04-20T10:41:38.158Z,23.67
2019-04-20T10:44:00.743Z,23.78
2019-04-20T10:46:31.027Z,24.07
2019-04-20T10:49:03.805Z,23.97
2019-04-20T10:51:31.467Z,23.47
2019-04-20T10:54:02.437Z,23.94
2019-04-20T10:56:31.780Z,24.39
2019-04-20T10:59:01.768Z,24.06
2019-04-20T11:01:31.573Z,24.05
2019-04-20T11:04:00.846Z,23.86
2019-04-20T11:06:29.487Z,24.11
2019-04-20T11:08:58.532Z,24.35
2019-04-20T11:11:30.814Z,24.36
2019-04-20T11:14:06.269Z,24.57
2019-04-20T11:16:30.527Z,24.42
2019-04-20T11:19:01.001Z,24.64
2019-04-20T11:21:30.227Z,24.71
2019-04-20T11:23:58.757Z,25.12
2019-04-20T11:26:28.618Z,25.40
2019-04-20T11:28:58.054Z,24.99
2019-04-20T11:31:37.333Z,24.71
2019-04-20T11:33:58.548Z,24.61
2019-04-20T11:36:27.477Z,24.48
2019-04-20T11:38:58.704Z,24.32
2019-04-20T11:41:31.034Z,24.59
2019-04-20T11:43:58.366Z,24.53
2019-04-20T11:46:28.718Z,24.74
2019-04-20T11:48:57.397Z,24.94
2019-04-20T11:51:26.036Z,25.22
2019-04-20T11:53:54.713Z,25.31
2019-04-20T11:56:28.052Z,25.22
2019-04-20T11:58:53.803Z,25.36
2019-04-20T12:01:49.307Z,25.47
2019-04-20T12:12:42.466Z,25.31
2019-04-20T12:15:47.667Z,25.58
2019-04-20T12:18:17.912Z,25.76
2019-04-20T12:20:47.731Z,25.70
2019-04-20T12:23:16.472Z,25.60
2019-04-20T12:25:46.295Z,25.49
2019-04-20T12:28:15.712Z,25.91
2019-04-20T12:30:46.027Z,25.81
2019-04-20T12:33:15.607Z,26.26
2019-04-20T12:35:45.096Z,26.11
2019-04-20T12:38:14.887Z,25.90
2019-04-20T12:40:44.162Z,25.81
2019-04-20T12:43:13.221Z,25.58
2019-04-20T12:45:44.146Z,25.93
2019-04-20T12:48:13.635Z,26.01
2019-04-20T12:53:50.809Z,25.77
2019-04-20T12:56:20.801Z,26.06
2019-04-20T12:58:49.554Z,25.95
2019-04-20T13:01:21.979Z,25.92
2019-04-20T13:03:49.846Z,26.16
2019-04-20T13:06:19.598Z,26.63
2019-04-20T13:09:30.489Z,26.62
2019-04-20T13:12:19.393Z,26.51
2019-04-20T13:15:46.656Z,26.09
2019-04-20T13:21:05.067Z,26.47
2019-04-20T13:23:35.143Z,26.30
2019-04-20T13:26:07.236Z,25.88
2019-04-20T13:28:36.850Z,26.53
2019-04-20T13:31:06.172Z,26.82
2019-04-20T13:34:15.141Z,26.31
2019-04-20T13:36:46.206Z,26.42
2019-04-20T13:39:16.557Z,26.26
2019-04-20T13:41:57.576Z,26.00
2019-04-20T13:44:16.146Z,26.06
2019-04-20T13:46:45.040Z,26.61
2019-04-20T13:49:15.276Z,26.51
2019-04-20T13:51:44.599Z,26.20
2019-04-20T13:54:18.872Z,26.20
2019-04-20T14:02:28.864Z,26.07
2019-04-20T14:07:57.590Z,26.67
2019-04-20T14:10:27.086Z,26.85
2019-04-20T14:13:03.148Z,26.34
2019-04-20T14:15:28.996Z,26.06
2019-04-20T14:17:59.144Z,26.04
2019-04-20T14:20:29.751Z,26.25
2019-04-20T14:22:58.904Z,26.51
2019-04-20T14:25:29.001Z,26.73
2019-04-20T14:27:57.972Z,26.80
2019-04-20T14:30:26.944Z,26.67
2019-04-20T14:32:57.009Z,25.98
2019-04-20T14:35:27.026Z,26.41
2019-04-20T14:37:57.498Z,26.66
2019-04-20T14:40:26.467Z,27.24
2019-04-20T14:42:56.943Z,26.98
2019-04-20T14:45:26.882Z,26.55
2019-04-20T14:47:57.390Z,25.79
2019-04-20T14:50:27.575Z,25.48
2019-04-20T14:52:57.603Z,25.42
2019-04-20T14:55:27.242Z,25.54
2019-04-20T15:01:18.565Z,26.22
2019-04-20T15:03:50.947Z,26.49
2019-04-20T15:06:17.915Z,27.11
2019-04-20T15:08:46.595Z,26.92
2019-04-20T15:11:15.249Z,26.60
2019-04-20T15:13:46.886Z,26.57
2019-04-20T15:16:56.331Z,26.56
2019-04-20T15:24:41.728Z,26.15
2019-04-20T15:27:12.148Z,26.17
2019-04-20T15:29:42.241Z,26.11
2019-04-20T15:32:13.015Z,26.11
2019-04-20T15:34:42.716Z,26.29
2019-04-20T15:37:12.524Z,25.80
2019-04-20T15:42:29.576Z,25.77
2019-04-20T15:44:59.208Z,26.07
2019-04-20T15:47:28.045Z,26.28
2019-04-20T15:49:57.972Z,26.53
2019-04-20T15:52:31.850Z,26.35
2019-04-20T15:54:57.305Z,26.20
2019-04-20T15:57:29.122Z,26.23
2019-04-20T15:59:56.400Z,26.03
2019-04-20T16:08:44.391Z,25.98
2019-04-20T16:11:13.379Z,25.59
2019-04-20T16:13:47.551Z,25.76
2019-04-20T16:16:13.995Z,25.85
2019-04-20T16:19:32.780Z,25.76
2019-04-20T16:21:53.973Z,25.68
2019-04-20T16:27:21.725Z,25.50
2019-04-20T16:29:51.607Z,25.44
2019-04-20T16:32:20.716Z,25.42
2019-04-20T16:34:50.605Z,25.31
2019-04-20T16:37:20.147Z,25.38
2019-04-20T16:39:50.450Z,25.19
2019-04-20T16:42:20.531Z,25.07
2019-04-20T16:44:49.457Z,24.97
2019-04-20T16:47:19.608Z,24.85
2019-04-20T16:49:48.806Z,24.65
2019-04-20T16:52:19.124Z,24.55
2019-04-20T16:54:50.095Z,24.44
2019-04-20T16:57:39.709Z,24.45
2019-04-20T17:03:17.389Z,24.47
2019-04-20T17:05:48.509Z,24.27
2019-04-20T17:08:16.777Z,24.19
2019-04-20T17:13:56.976Z,23.93
2019-04-20T17:16:25.911Z,23.73
2019-04-20T17:18:55.687Z,23.51
2019-04-20T17:21:27.715Z,23.54
2019-04-20T17:23:55.448Z,23.19
2019-04-20T17:29:33.836Z,23.20
2019-04-20T17:35:01.956Z,22.89
2019-04-20T17:37:22.626Z,22.77
2019-04-20T17:40:12.170Z,22.74
2019-04-20T17:42:36.330Z,22.55
2019-04-20T17:45:03.781Z,22.31
2019-04-20T17:47:44.371Z,22.17
2019-04-20T17:50:13.170Z,22.08
2019-04-20T17:52:55.237Z,21.77
2019-04-20T17:55:49.377Z,21.65
2019-04-20T17:58:20.739Z,21.43
2019-04-20T18:01:21.093Z,21.15
2019-04-20T18:04:27.602Z,20.96
2019-04-20T18:06:57.892Z,20.80
2019-04-20T18:09:38.685Z,20.74
2019-04-20T18:11:52.028Z,20.43
2019-04-20T18:14:33.372Z,20.40
2019-04-20T18:17:17.877Z,20.02
2019-04-20T18:19:56.889Z,20.04
2019-04-20T18:22:27.666Z,19.73
2019-04-20T18:25:22.493Z,19.29
2019-04-20T18:27:41.485Z,18.99
2019-04-20T18:32:47.409Z,18.62
2019-04-20T18:35:41.270Z,18.45
2019-04-20T18:38:12.598Z,18.27
2019-04-20T18:40:50.850Z,18.07
2019-04-20T18:43:15.023Z,17.86
2019-04-20T18:45:58.238Z,17.78
2019-04-20T18:48:33.621Z,17.62
2019-04-20T18:50:43.521Z,17.56
2019-04-20T18:53:16.064Z,17.44
2019-04-20T18:55:48.055Z,17.33
2019-04-20T18:58:11.069Z,17.30
2019-04-20T19:00:44.226Z,17.20
2019-04-20T19:03:20.366Z,17.17
2019-04-20T19:05:42.140Z,17.25
2019-04-20T19:08:13.839Z,17.04
2019-04-20T19:10:43.776Z,16.90
2019-04-20T19:13:36.765Z,16.70
2019-04-20T19:16:30.472Z,16.81
2019-04-20T19:19:23.429Z,16.60
2019-04-20T19:21:41.628Z,16.41
2019-04-20T19:24:13.266Z,16.31
2019-04-20T19:26:48.786Z,16.41
2019-04-20T19:29:22.173Z,16.42
2019-04-20T19:31:56.801Z,16.14
2019-04-20T19:34:31.279Z,15.97
2019-04-20T19:36:58.021Z,16.04
2019-04-20T19:39:25.748Z,15.88
2019-04-20T19:42:08.603Z,15.66
2019-04-20T19:44:42.335Z,15.59
2019-04-20T19:47:17.020Z,15.46
2019-04-20T19:50:10.912Z,15.47
2019-04-20T19:52:55.836Z,15.37
2019-04-20T19:55:02.426Z,15.33
2019-04-20T19:57:51.040Z,15.24
2019-04-20T20:00:50.496Z,15.12
2019-04-20T20:03:17.428Z,15.31
2019-04-20T20:05:48.947Z,15.15
2019-04-20T20:09:01.872Z,15.09
2019-04-20T20:11:32.283Z,14.90
2019-04-20T20:13:58.890Z,14.73
2019-04-20T20:16:43.606Z,14.64
2019-04-20T20:19:06.034Z,14.53
2019-04-20T20:21:46.737Z,14.48
2019-04-20T20:23:59.718Z,14.27
2019-04-20T20:26:36.207Z,14.22
2019-04-20T20:29:09.632Z,14.12
2019-04-20T20:31:49.966Z,13.96
2019-04-20T20:34:10.934Z,13.87
2019-04-20T20:36:45.267Z,13.69
2019-04-20T20:39:09.638Z,13.60
2019-04-20T20:41:46.693Z,13.54
2019-04-20T20:44:08.758Z,13.49
2019-04-20T20:46:39.622Z,13.51
2019-04-20T20:49:22.685Z,13.50
2019-04-20T20:52:11.959Z,13.50
2019-04-20T20:54:40.430Z,13.46
2019-04-20T20:57:01.433Z,13.47
2019-04-20T20:59:35.828Z,13.38
2019-04-20T21:02:06.776Z,13.38
2019-04-20T21:04:25.810Z,13.39
2019-04-20T21:06:54.890Z,13.37
2019-04-20T21:09:25.643Z,13.18
2019-04-20T21:12:00.589Z,13.05
2019-04-20T21:14:29.527Z,12.96
2019-04-20T21:17:02.995Z,12.86
2019-04-20T21:19:45.272Z,12.83
2019-04-20T21:22:04.835Z,12.69
2019-04-20T21:27:23.924Z,12.65
2019-04-20T21:29:56.377Z,12.65
2019-04-20T21:32:24.030Z,12.59
2019-04-20T21:34:58.463Z,12.48
2019-04-20T21:37:51.205Z,12.40
2019-04-20T21:40:25.129Z,12.29
2019-04-20T21:42:53.556Z,12.29
2019-04-20T21:45:59.432Z,12.35
2019-04-20T21:48:50.519Z,12.31
2019-04-20T21:51:13.980Z,12.45
2019-04-20T21:53:32.974Z,12.43
2019-04-20T21:55:59.757Z,12.35
2019-04-20T21:58:35.216Z,12.38
2019-04-20T22:01:12.112Z,12.74
2019-04-20T22:03:32.442Z,12.72
2019-04-20T22:06:22.495Z,12.50
2019-04-20T22:08:56.895Z,12.44
2019-04-20T22:11:23.967Z,12.33
2019-04-20T22:13:54.528Z,12.30
2019-04-20T22:16:49.162Z,12.16
2019-04-20T22:19:41.829Z,12.14
2019-04-20T22:22:15.159Z,12.13
2019-04-20T22:24:53.985Z,12.10
2019-04-20T22:27:12.879Z,12.20
2019-04-20T22:29:36.309Z,12.20
2019-04-20T22:32:11.288Z,12.10
2019-04-20T22:34:37.618Z,11.97
2019-04-20T22:37:08.581Z,12.08
2019-04-20T22:39:58.300Z,12.19
2019-04-20T22:42:31.319Z,12.28
2019-04-20T22:45:05.427Z,12.33
2019-04-20T22:47:32.584Z,12.48
2019-04-20T22:50:31.626Z,12.42
2019-04-20T22:55:42.631Z,12.20
2019-04-20T22:58:25.057Z,12.25
2019-04-20T23:00:50.138Z,12.17
2019-04-20T23:03:10.611Z,12.27
2019-04-20T23:05:40.596Z,12.36
2019-04-20T23:08:10.945Z,12.33
2019-04-20T23:10:45.910Z,12.42
2019-04-20T23:13:11.545Z,12.34
2019-04-20T23:15:49.224Z,12.19
2019-04-20T23:18:13.956Z,12.13
2019-04-20T23:20:44.093Z,12.23
2019-04-20T23:23:19.358Z,12.23
2019-04-20T23:25:45.231Z,12.07
2019-04-20T23:28:17.435Z,12.10
2019-04-20T23:30:45.718Z,11.92
2019-04-20T23:36:06.763Z,11.67
2019-04-20T23:39:16.891Z,11.58
2019-04-20T23:41:53.611Z,11.44
2019-04-20T23:44:40.099Z,11.24
2019-04-20T23:47:26.003Z,11.16
2019-04-20T23:50:34.191Z,11.03
2019-04-20T23:53:08.673Z,11.00
2019-04-20T23:55:18.813Z,10.90
2019-04-20T23:58:10.574Z,10.91
